createdAt,value
2022-11-13T00:01:15.553Z,54.38
2022-11-13T00:06:09.665Z,51.30
2022-11-13T00:08:36.087Z,35.92
2022-11-13T00:11:08.538Z,43.07
2022-11-13T00:13:35.770Z,36.70
2022-11-13T00:16:05.113Z,35.47
2022-11-13T00:18:33.892Z,46.13
2022-11-13T00:21:15.168Z,45.00
2022-11-13T00:23:42.448Z,38.92
2022-11-13T00:26:19.510Z,43.05
2022-11-13T00:28:46.999Z,37.67
2022-11-13T00:31:15.666Z,66.40
2022-11-13T00:36:28.964Z,49.22
2022-11-13T00:38:55.924Z,53.08
2022-11-13T00:41:23.915Z,85.10
2022-11-13T00:43:50.630Z,99.80
2022-11-13T00:46:17.172Z,54.08
2022-11-13T00:48:43.590Z,48.63
2022-11-13T00:51:10.056Z,55.37
2022-11-13T00:53:37.099Z,45.77
2022-11-13T00:56:04.016Z,77.73
2022-11-13T00:58:30.750Z,67.18
2022-11-13T01:01:05.162Z,59.47
2022-11-13T01:03:31.616Z,82.65
2022-11-13T01:05:58.053Z,57.67
2022-11-13T01:08:24.738Z,34.90
2022-11-13T01:10:53.953Z,55.67
2022-11-13T01:13:20.859Z,61.17
2022-11-13T01:15:47.431Z,44.30
2022-11-13T01:18:13.897Z,71.05
2022-11-13T01:20:40.842Z,34.05
2022-11-13T01:23:07.264Z,52.20
2022-11-13T01:25:36.084Z,65.15
2022-11-13T01:28:02.650Z,72.23
2022-11-13T01:30:29.044Z,45.90
2022-11-13T01:32:55.754Z,31.40
2022-11-13T01:35:22.364Z,42.10
2022-11-13T01:37:48.751Z,36.53
2022-11-13T01:40:16.357Z,65.73
2022-11-13T01:42:42.735Z,28.60
2022-11-13T01:45:54.304Z,30.60
2022-11-13T01:48:20.938Z,37.87
2022-11-13T01:50:47.661Z,36.90
2022-11-13T01:53:14.183Z,47.00
2022-11-13T01:55:40.748Z,46.67
2022-11-13T01:58:10.254Z,31.07
2022-11-13T02:00:36.803Z,33.47
2022-11-13T02:03:03.575Z,28.23
2022-11-13T02:05:30.220Z,65.53
2022-11-13T02:07:56.913Z,27.83
2022-11-13T02:10:23.531Z,43.47
2022-11-13T02:12:51.689Z,32.00
2022-11-13T02:15:25.203Z,50.67
2022-11-13T02:17:55.345Z,26.10
2022-11-13T02:20:35.142Z,38.47
2022-11-13T02:23:19.484Z,25.83
2022-11-13T02:25:50.409Z,29.15
2022-11-13T02:30:44.661Z,21.20
2022-11-13T02:33:26.708Z,27.65
2022-11-13T02:35:53.206Z,28.73
2022-11-13T02:38:19.864Z,20.67
2022-11-13T02:40:46.364Z,63.50
2022-11-13T02:43:12.925Z,60.97
2022-11-13T02:45:39.405Z,64.57
2022-11-13T02:48:06.836Z,23.20
2022-11-13T02:50:34.197Z,34.70
2022-11-13T02:53:00.940Z,26.70
2022-11-13T02:55:27.401Z,25.70
2022-11-13T02:57:53.880Z,22.63
2022-11-13T03:00:20.716Z,47.23
2022-11-13T03:02:47.146Z,68.10
2022-11-13T03:05:14.246Z,24.33
2022-11-13T03:07:41.516Z,79.68
2022-11-13T03:10:09.221Z,43.10
2022-11-13T03:12:35.823Z,69.97
2022-11-13T03:15:02.546Z,24.20
2022-11-13T03:17:31.647Z,26.90
2022-11-13T03:19:58.424Z,20.38
2022-11-13T03:22:25.227Z,41.13
2022-11-13T03:24:51.571Z,26.03
2022-11-13T03:27:18.256Z,37.43
2022-11-13T03:29:44.831Z,25.80
2022-11-13T03:32:11.314Z,26.25
2022-11-13T03:34:37.622Z,47.90
2022-11-13T03:37:04.237Z,26.80
2022-11-13T03:39:30.882Z,21.45
2022-11-13T03:41:57.535Z,56.42
2022-11-13T03:44:23.940Z,48.87
2022-11-13T03:46:50.529Z,19.33
2022-11-13T03:49:17.203Z,21.50
2022-11-13T03:51:43.782Z,37.97
2022-11-13T03:54:10.159Z,28.85
2022-11-13T03:56:36.735Z,25.77
2022-11-13T03:59:03.095Z,26.38
2022-11-13T04:01:29.659Z,24.03
2022-11-13T04:03:56.347Z,20.73
2022-11-13T04:06:22.690Z,23.58
2022-11-13T04:08:49.019Z,54.90
2022-11-13T04:11:15.713Z,52.00
2022-11-13T04:13:42.128Z,40.60
2022-11-13T04:16:08.842Z,23.17
2022-11-13T04:18:35.283Z,35.75
2022-11-13T04:21:03.498Z,19.97
2022-11-13T04:23:30.425Z,37.50
2022-11-13T04:25:57.249Z,75.00
2022-11-13T04:28:23.844Z,93.57
2022-11-13T04:30:52.714Z,36.13
2022-11-13T04:33:19.157Z,32.77
2022-11-13T04:35:45.770Z,30.43
2022-11-13T04:38:13.218Z,67.73
2022-11-13T04:40:40.493Z,56.53
2022-11-13T04:43:07.413Z,105.10
2022-11-13T04:45:34.616Z,28.17
2022-11-13T04:48:01.026Z,19.83
2022-11-13T04:50:27.447Z,22.73
2022-11-13T04:52:53.885Z,23.60
2022-11-13T04:55:20.285Z,141.77
2022-11-13T04:57:46.794Z,148.70
2022-11-13T05:00:13.669Z,87.23
2022-11-13T05:02:40.339Z,38.60
2022-11-13T05:05:07.048Z,40.73
2022-11-13T05:07:33.671Z,35.60
2022-11-13T05:09:59.957Z,27.00
2022-11-13T05:12:26.279Z,49.83
2022-11-13T05:14:52.679Z,46.97
2022-11-13T05:17:19.029Z,44.00
2022-11-13T05:19:45.542Z,48.77
2022-11-13T05:22:11.927Z,49.43
2022-11-13T05:24:38.331Z,77.83
2022-11-13T05:27:04.889Z,75.00
2022-11-13T05:29:31.498Z,120.60
2022-11-13T05:31:57.877Z,87.83
2022-11-13T05:34:24.525Z,92.93
2022-11-13T05:36:50.884Z,52.30
2022-11-13T05:39:17.282Z,54.57
2022-11-13T05:41:43.871Z,32.17
2022-11-13T05:44:10.590Z,27.30
2022-11-13T05:46:37.032Z,58.80
2022-11-13T05:49:04.638Z,56.23
2022-11-13T05:51:33.558Z,54.63
2022-11-13T05:54:01.031Z,38.50
2022-11-13T05:56:29.961Z,103.33
2022-11-13T05:58:58.494Z,44.10
2022-11-13T06:01:28.592Z,28.77
2022-11-13T06:03:58.267Z,28.90
2022-11-13T06:06:26.708Z,71.27
2022-11-13T06:08:55.055Z,85.23
2022-11-13T06:11:24.761Z,56.27
2022-11-13T06:13:53.331Z,73.07
2022-11-13T06:16:23.141Z,81.83
2022-11-13T06:18:50.400Z,41.13
2022-11-13T06:21:20.326Z,22.07
2022-11-13T06:23:46.995Z,35.27
2022-11-13T06:26:19.420Z,47.13
2022-11-13T06:28:46.627Z,19.07
2022-11-13T06:31:19.841Z,34.50
2022-11-13T06:33:47.983Z,43.10
2022-11-13T06:36:20.460Z,37.17
2022-11-13T06:38:47.535Z,26.07
2022-11-13T06:41:15.974Z,20.47
2022-11-13T06:43:43.218Z,44.40
2022-11-13T06:46:18.447Z,122.83
2022-11-13T06:48:45.382Z,57.73
2022-11-13T06:51:18.351Z,50.47
2022-11-13T06:53:45.303Z,75.73
2022-11-13T06:56:12.996Z,52.57
2022-11-13T06:58:39.909Z,33.23
2022-11-13T07:01:14.863Z,30.83
2022-11-13T07:03:42.028Z,16.03
2022-11-13T07:06:11.283Z,20.63
2022-11-13T07:08:37.623Z,21.40
2022-11-13T07:11:04.162Z,19.30
2022-11-13T07:13:30.709Z,27.97
2022-11-13T07:16:09.351Z,21.00
2022-11-13T07:18:42.317Z,13.67
2022-11-13T07:21:11.469Z,18.03
2022-11-13T07:23:38.569Z,15.17
2022-11-13T07:26:05.587Z,13.90
2022-11-13T07:28:32.030Z,18.03
2022-11-13T07:30:59.609Z,14.97
2022-11-13T07:33:26.023Z,22.60
2022-11-13T07:35:57.106Z,15.70
2022-11-13T07:38:23.826Z,12.03
2022-11-13T07:40:51.249Z,19.33
2022-11-13T07:43:18.194Z,16.03
2022-11-13T07:45:44.855Z,23.13
2022-11-13T07:48:11.383Z,22.47
2022-11-13T07:50:38.844Z,15.60
2022-11-13T07:53:07.796Z,42.37
2022-11-13T07:55:35.488Z,32.03
2022-11-13T07:58:02.925Z,48.57
2022-11-13T08:00:30.918Z,74.70
2022-11-13T08:02:57.678Z,26.00
2022-11-13T08:05:24.310Z,12.80
2022-11-13T08:07:52.043Z,26.47
2022-11-13T08:10:20.219Z,20.60
2022-11-13T08:12:47.535Z,13.83
2022-11-13T08:15:15.045Z,17.33
2022-11-13T08:17:41.701Z,15.40
2022-11-13T08:20:08.795Z,21.77
2022-11-13T08:22:35.308Z,32.47
2022-11-13T08:25:02.079Z,17.03
2022-11-13T08:27:28.530Z,16.03
2022-11-13T08:29:54.895Z,14.40
2022-11-13T08:32:21.830Z,16.77
2022-11-13T08:34:48.160Z,21.38
2022-11-13T08:37:15.623Z,17.08
2022-11-13T08:39:42.219Z,15.20
2022-11-13T08:42:08.660Z,25.93
2022-11-13T08:44:35.172Z,22.67
2022-11-13T08:47:01.531Z,25.40
2022-11-13T08:49:27.997Z,16.17
2022-11-13T08:51:54.394Z,16.77
2022-11-13T08:54:20.728Z,19.83
2022-11-13T08:56:54.508Z,17.63
2022-11-13T08:59:22.663Z,16.40
2022-11-13T09:01:50.026Z,16.07
2022-11-13T09:04:16.371Z,13.07
2022-11-13T09:06:42.749Z,15.15
2022-11-13T09:09:09.338Z,15.43
2022-11-13T09:11:35.789Z,17.58
2022-11-13T09:14:02.183Z,16.05
2022-11-13T09:16:28.597Z,12.93
2022-11-13T09:18:55.074Z,15.60
2022-11-13T09:21:21.752Z,17.67
2022-11-13T09:23:48.133Z,16.95
2022-11-13T09:26:14.579Z,21.40
2022-11-13T09:28:41.015Z,19.63
2022-11-13T09:31:08.173Z,20.80
2022-11-13T09:33:34.761Z,20.73
2022-11-13T09:36:01.653Z,21.58
2022-11-13T09:38:28.522Z,21.05
2022-11-13T09:40:57.968Z,21.40
2022-11-13T09:43:34.305Z,18.95
2022-11-13T09:46:10.557Z,18.95
2022-11-13T09:48:40.462Z,19.00
2022-11-13T09:51:16.610Z,22.23
2022-11-13T09:53:43.560Z,20.65
2022-11-13T09:56:12.796Z,20.20
2022-11-13T09:58:48.417Z,20.15
2022-11-13T10:01:40.112Z,21.02
2022-11-13T10:04:14.344Z,20.65
2022-11-13T10:07:03.677Z,19.05
2022-11-13T10:10:10.310Z,19.10
2022-11-13T10:12:36.874Z,22.33
2022-11-13T10:15:05.321Z,19.48
2022-11-13T10:17:46.909Z,22.38
2022-11-13T10:20:23.644Z,20.38
2022-11-13T10:23:06.122Z,23.02
2022-11-13T10:25:36.776Z,23.35
2022-11-13T10:28:35.392Z,22.48
2022-11-13T10:30:58.742Z,24.45
2022-11-13T10:33:25.342Z,22.65
2022-11-13T10:36:18.198Z,23.17
2022-11-13T10:38:50.414Z,20.40
2022-11-13T10:41:21.637Z,24.77
2022-11-13T10:44:01.614Z,20.90
2022-11-13T10:46:30.406Z,21.85
2022-11-13T10:48:58.892Z,19.05
2022-11-13T10:51:31.953Z,19.75
2022-11-13T10:53:59.217Z,19.73
2022-11-13T10:56:26.509Z,19.20
2022-11-13T10:59:10.573Z,18.45
2022-11-13T11:01:37.396Z,19.73
2022-11-13T11:04:06.031Z,18.35
2022-11-13T11:07:12.595Z,20.05
2022-11-13T11:09:41.944Z,20.58
2022-11-13T11:12:17.462Z,19.55
2022-11-13T11:14:59.342Z,17.42
2022-11-13T11:17:52.415Z,17.95
2022-11-13T11:20:53.240Z,19.73
2022-11-13T11:23:32.833Z,17.48
2022-11-13T11:26:15.693Z,18.42
2022-11-13T11:28:46.747Z,16.13
2022-11-13T11:31:32.646Z,18.55
2022-11-13T11:34:23.947Z,19.63
2022-11-13T11:37:03.064Z,18.48
2022-11-13T11:39:37.433Z,16.50
2022-11-13T11:42:41.659Z,17.77
2022-11-13T11:45:20.068Z,15.82
2022-11-13T11:47:47.006Z,16.50
2022-11-13T11:50:15.958Z,15.48
2022-11-13T11:53:07.633Z,14.98
2022-11-13T11:55:52.958Z,15.52
2022-11-13T11:58:52.317Z,14.80
2022-11-13T12:01:30.781Z,15.48
2022-11-13T12:04:13.709Z,15.35
2022-11-13T12:06:49.200Z,15.40
2022-11-13T12:09:26.830Z,13.38
2022-11-13T12:12:36.997Z,13.45
2022-11-13T12:15:08.692Z,13.57
2022-11-13T12:17:56.464Z,15.57
2022-11-13T12:20:31.839Z,15.10
2022-11-13T12:23:28.781Z,14.95
2022-11-13T12:26:04.050Z,13.65
2022-11-13T12:28:53.196Z,15.18
2022-11-13T12:31:37.510Z,15.20
2022-11-13T12:34:19.830Z,13.55
2022-11-13T12:36:47.541Z,15.45
2022-11-13T12:39:36.039Z,14.32
2022-11-13T12:42:20.502Z,14.43
2022-11-13T12:44:52.737Z,13.32
2022-11-13T12:47:19.599Z,13.38
2022-11-13T12:49:46.038Z,14.73
2022-11-13T12:52:21.539Z,14.00
2022-11-13T12:54:48.806Z,14.20
2022-11-13T12:57:15.149Z,13.27
2022-11-13T12:59:45.498Z,15.40
2022-11-13T13:02:14.580Z,15.98
2022-11-13T13:05:18.682Z,17.15
2022-11-13T13:08:05.227Z,15.52
2022-11-13T13:10:52.635Z,13.82
2022-11-13T13:13:38.235Z,13.45
2022-11-13T13:16:06.006Z,16.25
2022-11-13T13:18:37.605Z,12.55
2022-11-13T13:21:19.154Z,13.15
2022-11-13T13:23:48.948Z,13.60
2022-11-13T13:26:15.431Z,13.13
2022-11-13T13:28:46.859Z,15.55
2022-11-13T13:31:13.203Z,11.27
2022-11-13T13:33:59.539Z,12.48
2022-11-13T13:36:30.633Z,13.27
2022-11-13T13:39:23.815Z,12.52
2022-11-13T13:42:28.980Z,12.80
2022-11-13T13:45:32.773Z,14.90
2022-11-13T13:48:00.972Z,13.93
2022-11-13T13:50:32.762Z,12.13
2022-11-13T13:53:00.402Z,12.25
2022-11-13T13:55:36.734Z,12.38
2022-11-13T13:58:08.687Z,12.40
2022-11-13T14:00:44.610Z,12.15
2022-11-13T14:03:22.995Z,12.50
2022-11-13T14:05:49.389Z,12.60
2022-11-13T14:08:27.332Z,14.65
2022-11-13T14:10:53.914Z,11.95
2022-11-13T14:13:29.384Z,12.25
2022-11-13T14:16:07.016Z,11.13
2022-11-13T14:18:34.963Z,14.65
2022-11-13T14:21:06.016Z,13.15
2022-11-13T14:23:39.819Z,11.95
2022-11-13T14:26:07.250Z,12.27
2022-11-13T14:28:44.098Z,11.38
2022-11-13T14:31:14.114Z,12.63
2022-11-13T14:33:50.297Z,12.55
2022-11-13T14:36:29.203Z,13.02
2022-11-13T14:38:56.504Z,13.32
2022-11-13T14:41:38.454Z,12.05
2022-11-13T14:44:05.908Z,13.98
2022-11-13T14:46:37.924Z,13.18
2022-11-13T14:49:11.506Z,18.38
2022-11-13T14:51:38.125Z,16.77
2022-11-13T14:54:08.879Z,14.30
2022-11-13T14:56:41.648Z,13.75
2022-11-13T14:59:20.025Z,17.48
2022-11-13T15:01:56.993Z,15.90
2022-11-13T15:04:24.578Z,15.13
2022-11-13T15:06:52.150Z,15.25
2022-11-13T15:09:18.849Z,14.13
2022-11-13T15:11:45.292Z,15.52
2022-11-13T15:14:17.083Z,15.35
2022-11-13T15:16:47.695Z,15.90
2022-11-13T15:19:20.702Z,13.95
2022-11-13T15:22:05.499Z,15.32
2022-11-13T15:24:34.022Z,17.35
2022-11-13T15:27:01.881Z,17.88
2022-11-13T15:29:28.315Z,15.48
2022-11-13T15:31:54.746Z,16.95
2022-11-13T15:34:21.277Z,15.40
2022-11-13T15:36:48.004Z,14.48
2022-11-13T15:39:22.975Z,17.10
2022-11-13T15:41:50.014Z,17.05
2022-11-13T15:44:16.488Z,18.50
2022-11-13T15:46:42.866Z,15.10
2022-11-13T15:49:09.530Z,16.00
2022-11-13T15:51:45.849Z,19.27
2022-11-13T15:54:25.410Z,15.80
2022-11-13T15:56:51.836Z,16.55
2022-11-13T15:59:18.279Z,16.27
2022-11-13T16:01:44.709Z,21.85
2022-11-13T16:04:11.272Z,18.92
2022-11-13T16:06:37.786Z,16.38
2022-11-13T16:09:04.842Z,18.75
2022-11-13T16:11:33.304Z,19.98
2022-11-13T16:14:00.105Z,18.20
2022-11-13T16:16:35.924Z,17.27
2022-11-13T16:19:03.219Z,16.52
2022-11-13T16:21:30.708Z,19.77
2022-11-13T16:23:57.267Z,18.50
2022-11-13T16:26:26.118Z,21.63
2022-11-13T16:29:12.827Z,18.58
2022-11-13T16:31:40.252Z,18.20
2022-11-13T16:34:06.617Z,18.13
2022-11-13T16:36:33.228Z,19.92
2022-11-13T16:38:59.812Z,21.33
2022-11-13T16:41:26.266Z,20.42
2022-11-13T16:43:52.831Z,23.27
2022-11-13T16:46:31.936Z,21.50
2022-11-13T16:48:58.899Z,25.80
2022-11-13T16:51:25.254Z,20.15
2022-11-13T16:53:51.701Z,22.40
2022-11-13T16:56:21.954Z,23.92
2022-11-13T16:58:48.339Z,25.23
2022-11-13T17:01:16.484Z,23.95
2022-11-13T17:03:43.712Z,22.60
2022-11-13T17:06:24.929Z,21.67
2022-11-13T17:08:52.368Z,23.83
2022-11-13T17:11:19.701Z,22.00
2022-11-13T17:13:54.180Z,24.10
2022-11-13T17:16:22.131Z,22.00
2022-11-13T17:18:48.815Z,21.80
2022-11-13T17:21:16.515Z,26.45
2022-11-13T17:23:43.338Z,28.33
2022-11-13T17:26:10.554Z,22.88
2022-11-13T17:28:37.180Z,25.95
2022-11-13T17:31:08.238Z,26.20
2022-11-13T17:33:35.257Z,27.25
2022-11-13T17:36:01.621Z,29.02
2022-11-13T17:38:28.373Z,34.00
2022-11-13T17:40:55.070Z,27.23
2022-11-13T17:43:22.069Z,32.70
2022-11-13T17:45:52.353Z,36.97
2022-11-13T17:48:18.979Z,24.50
2022-11-13T17:50:45.821Z,23.63
2022-11-13T17:53:13.365Z,31.02
2022-11-13T17:55:41.155Z,28.95
2022-11-13T17:58:07.694Z,24.23
2022-11-13T18:00:34.398Z,22.50
2022-11-13T18:03:00.778Z,21.38
2022-11-13T18:05:27.161Z,21.42
2022-11-13T18:07:53.705Z,21.23
2022-11-13T18:10:20.413Z,20.92
2022-11-13T18:12:47.103Z,24.63
2022-11-13T18:15:13.461Z,25.27
2022-11-13T18:17:39.769Z,28.05
2022-11-13T18:20:06.803Z,27.65
2022-11-13T18:22:33.222Z,28.67
2022-11-13T18:24:59.664Z,29.45
2022-11-13T18:27:27.839Z,26.92
2022-11-13T18:29:54.520Z,24.90
2022-11-13T18:32:21.122Z,24.15
2022-11-13T18:34:47.491Z,24.90
2022-11-13T18:37:14.065Z,28.35
2022-11-13T18:39:40.602Z,25.65
2022-11-13T18:42:07.094Z,21.65
2022-11-13T18:44:33.384Z,26.15
2022-11-13T18:46:59.831Z,24.92
2022-11-13T18:49:26.205Z,24.63
2022-11-13T18:51:52.823Z,28.02
2022-11-13T18:54:19.495Z,27.85
2022-11-13T18:56:45.942Z,26.30
2022-11-13T18:59:12.331Z,24.65
2022-11-13T19:01:39.125Z,24.05
2022-11-13T19:04:22.259Z,27.67
2022-11-13T19:06:49.826Z,28.75
2022-11-13T19:09:17.771Z,28.65
2022-11-13T19:11:44.852Z,26.43
2022-11-13T19:14:15.917Z,28.33
2022-11-13T19:16:42.571Z,29.03
2022-11-13T19:19:18.625Z,25.45
2022-11-13T19:21:45.480Z,27.95
2022-11-13T19:24:12.090Z,31.35
2022-11-13T19:26:38.785Z,30.95
2022-11-13T19:29:05.216Z,29.65
2022-11-13T19:31:31.931Z,26.77
2022-11-13T19:33:59.919Z,25.42
2022-11-13T19:36:28.303Z,28.52
2022-11-13T19:38:55.604Z,27.88
2022-11-13T19:41:23.512Z,26.08
2022-11-13T19:43:50.152Z,27.33
2022-11-13T19:46:18.429Z,24.52
2022-11-13T19:48:46.142Z,25.75
2022-11-13T19:51:21.411Z,25.58
2022-11-13T19:53:52.397Z,24.37
2022-11-13T19:56:20.580Z,26.03
2022-11-13T19:58:48.744Z,27.80
2022-11-13T20:01:19.569Z,26.38
2022-11-13T20:06:14.279Z,23.90
2022-11-13T20:08:41.105Z,28.20
2022-11-13T20:11:10.040Z,27.77
2022-11-13T20:13:37.813Z,32.07
2022-11-13T20:16:06.164Z,27.08
2022-11-13T20:18:33.048Z,28.63
2022-11-13T20:21:00.313Z,30.57
2022-11-13T20:23:26.831Z,28.57
2022-11-13T20:25:55.615Z,29.23
2022-11-13T20:28:22.546Z,28.47
2022-11-13T20:30:49.397Z,32.43
2022-11-13T20:33:21.222Z,34.27
2022-11-13T20:35:55.054Z,32.03
2022-11-13T20:38:21.372Z,34.43
2022-11-13T20:40:47.823Z,30.67
2022-11-13T20:43:14.480Z,37.67
2022-11-13T20:45:41.119Z,36.10
2022-11-13T20:48:07.557Z,38.97
2022-11-13T20:50:37.835Z,41.27
2022-11-13T20:53:05.433Z,39.50
2022-11-13T20:55:31.812Z,39.87
2022-11-13T20:57:58.348Z,39.67
2022-11-13T21:00:24.743Z,46.00
2022-11-13T21:02:52.176Z,40.93
2022-11-13T21:05:18.806Z,42.57
2022-11-13T21:07:45.423Z,42.90
2022-11-13T21:10:12.135Z,38.27
2022-11-13T21:12:38.511Z,39.50
2022-11-13T21:15:05.534Z,36.67
2022-11-13T21:17:32.186Z,37.10
2022-11-13T21:19:58.600Z,39.33
2022-11-13T21:22:25.008Z,34.70
2022-11-13T21:24:51.330Z,39.27
2022-11-13T21:27:17.821Z,41.17
2022-11-13T21:29:44.473Z,36.33
2022-11-13T21:32:10.818Z,40.07
2022-11-13T21:34:37.236Z,41.77
2022-11-13T21:37:03.695Z,40.57
2022-11-13T21:39:30.261Z,36.63
2022-11-13T21:41:57.028Z,41.60
2022-11-13T21:44:23.792Z,42.17
2022-11-13T21:46:50.191Z,38.17
2022-11-13T21:49:16.657Z,40.13
2022-11-13T21:51:43.712Z,40.80
2022-11-13T21:54:10.207Z,41.30
2022-11-13T21:56:38.852Z,33.40
2022-11-13T21:59:06.324Z,32.60
2022-11-13T22:01:38.096Z,29.57
2022-11-13T22:04:06.288Z,31.33
2022-11-13T22:06:34.021Z,29.10
2022-11-13T22:09:13.248Z,32.47
2022-11-13T22:11:39.880Z,30.37
2022-11-13T22:14:06.702Z,30.47
2022-11-13T22:16:34.842Z,29.60
2022-11-13T22:19:02.917Z,27.67
2022-11-13T22:21:30.704Z,30.53
2022-11-13T22:23:58.142Z,32.47
2022-11-13T22:26:26.228Z,31.83
2022-11-13T22:28:53.704Z,31.97
2022-11-13T22:31:23.017Z,31.27
2022-11-13T22:33:54.380Z,38.50
2022-11-13T22:36:26.460Z,33.92
2022-11-13T22:38:53.390Z,32.37
2022-11-13T22:41:25.634Z,34.57
2022-11-13T22:43:54.787Z,35.80
2022-11-13T22:46:23.909Z,33.07
2022-11-13T22:48:52.211Z,35.57
2022-11-13T22:51:21.139Z,33.07
2022-11-13T22:54:01.448Z,34.13
2022-11-13T22:56:30.364Z,34.80
2022-11-13T22:58:58.682Z,34.40
2022-11-13T23:01:28.072Z,34.00
2022-11-13T23:03:56.404Z,35.87
2022-11-13T23:06:25.096Z,30.17
2022-11-13T23:08:53.871Z,32.07
2022-11-13T23:11:21.992Z,33.90
2022-11-13T23:13:52.561Z,36.83
2022-11-13T23:16:19.800Z,36.80
2022-11-13T23:18:47.274Z,28.00
2022-11-13T23:21:14.889Z,34.20
2022-11-13T23:23:41.398Z,35.07
2022-11-13T23:26:10.231Z,34.37
2022-11-13T23:28:37.502Z,34.63
2022-11-13T23:31:04.812Z,28.87
2022-11-13T23:33:31.598Z,29.87
2022-11-13T23:35:58.584Z,30.90
2022-11-13T23:38:25.164Z,32.93
2022-11-13T23:40:58.021Z,31.73
2022-11-13T23:43:47.384Z,35.63
2022-11-13T23:46:11.747Z,32.13
2022-11-13T23:48:40.013Z,33.30
2022-11-13T23:51:07.022Z,31.97
2022-11-13T23:53:33.692Z,35.93
2022-11-13T23:56:00.415Z,38.43
2022-11-13T23:58:27.281Z,34.93
